sensor_id;sensor_type;location;lat;lon;timestamp;pressure;altitude;pressure_sealevel;temperature;humidity
41250;BME280;26984;59.928;30.306;2023-05-24T00:02:06;101608.16;;;16.09;94.74
41250;BME280;26984;59.928;30.306;2023-05-24T00:04:34;101607.16;;;16.03;95.01
41250;BME280;26984;59.928;30.306;2023-05-24T00:07:01;101602.41;;;15.99;95.21
41250;BME280;26984;59.928;30.306;2023-05-24T00:09:29;101600.31;;;16.01;96.42
41250;BME280;26984;59.928;30.306;2023-05-24T00:11:58;101602.41;;;15.99;96.79
41250;BME280;26984;59.928;30.306;2023-05-24T00:14:26;101597.44;;;15.96;97.19
41250;BME280;26984;59.928;30.306;2023-05-24T00:16:53;101599.56;;;15.94;97.00
41250;BME280;26984;59.928;30.306;2023-05-24T00:19:21;101600.22;;;15.89;97.21
41250;BME280;26984;59.928;30.306;2023-05-24T00:21:48;101608.38;;;15.89;97.38
41250;BME280;26984;59.928;30.306;2023-05-24T00:24:16;101604.72;;;15.84;97.68
41250;BME280;26984;59.928;30.306;2023-05-24T00:26:44;101600.09;;;15.84;98.08
41250;BME280;26984;59.928;30.306;2023-05-24T00:29:13;101602.19;;;15.82;98.13
41250;BME280;26984;59.928;30.306;2023-05-24T00:31:40;101606.81;;;15.82;98.15
41250;BME280;26984;59.928;30.306;2023-05-24T00:34:09;101606.22;;;15.79;98.17
41250;BME280;26984;59.928;30.306;2023-05-24T00:36:37;101610.81;;;15.79;97.83
41250;BME280;26984;59.928;30.306;2023-05-24T00:39:04;101607.19;;;15.85;100.00
41250;BME280;26984;59.928;30.306;2023-05-24T00:41:32;101604.34;;;15.80;99.25
41250;BME280;26984;59.928;30.306;2023-05-24T00:44:00;101597.47;;;15.77;98.94
41250;BME280;26984;59.928;30.306;2023-05-24T00:46:30;101595.81;;;15.76;99.33
41250;BME280;26984;59.928;30.306;2023-05-24T00:48:58;101590.81;;;15.73;99.26
41250;BME280;26984;59.928;30.306;2023-05-24T00:51:26;101590.00;;;15.73;99.41
41250;BME280;26984;59.928;30.306;2023-05-24T00:53:54;101589.19;;;15.72;99.58
41250;BME280;26984;59.928;30.306;2023-05-24T00:56:21;101591.88;;;15.72;99.89
41250;BME280;26984;59.928;30.306;2023-05-24T00:58:49;101596.72;;;15.70;100.00
41250;BME280;26984;59.928;30.306;2023-05-24T01:01:19;101587.72;;;15.70;100.00
41250;BME280;26984;59.928;30.306;2023-05-24T01:03:52;101589.63;;;15.69;100.00
41250;BME280;26984;59.928;30.306;2023-05-24T01:06:20;101596.00;;;15.75;100.00
41250;BME280;26984;59.928;30.306;2023-05-24T01:11:47;101599.81;;;15.74;100.00
41250;BME280;26984;59.928;30.306;2023-05-24T01:14:18;101607.13;;;15.73;100.00
41250;BME280;26984;59.928;30.306;2023-05-24T01:16:50;101600.19;;;15.77;100.00
41250;BME280;26984;59.928;30.306;2023-05-24T01:19:32;101596.84;;;15.75;100.00
41250;BME280;26984;59.928;30.306;2023-05-24T01:22:07;101599.81;;;15.74;100.00
41250;BME280;26984;59.928;30.306;2023-05-24T01:24:40;101598.16;;;15.73;100.00
41250;BME280;26984;59.928;30.306;2023-05-24T01:27:12;101598.97;;;15.73;100.00
41250;BME280;26984;59.928;30.306;2023-05-24T01:29:40;101593.31;;;15.75;100.00
41250;BME280;26984;59.928;30.306;2023-05-24T01:32:08;101599.09;;;15.78;100.00
41250;BME280;26984;59.928;30.306;2023-05-24T01:34:36;101600.69;;;15.86;100.00
41250;BME280;26984;59.928;30.306;2023-05-24T01:37:03;101604.06;;;16.00;100.00
41250;BME280;26984;59.928;30.306;2023-05-24T01:39:31;101595.13;;;16.11;100.00
41250;BME280;26984;59.928;30.306;2023-05-24T01:42:02;101596.28;;;16.03;100.00
41250;BME280;26984;59.928;30.306;2023-05-24T01:44:35;101601.88;;;16.09;100.00
41250;BME280;26984;59.928;30.306;2023-05-24T01:47:07;101598.88;;;15.98;100.00
41250;BME280;26984;59.928;30.306;2023-05-24T01:49:39;101603.25;;;15.99;100.00
41250;BME280;26984;59.928;30.306;2023-05-24T01:52:10;101603.28;;;15.81;100.00
41250;BME280;26984;59.928;30.306;2023-05-24T01:54:40;101606.97;;;15.68;100.00
41250;BME280;26984;59.928;30.306;2023-05-24T01:57:10;101603.91;;;15.58;100.00
41250;BME280;26984;59.928;30.306;2023-05-24T01:59:40;101604.97;;;15.57;100.00
41250;BME280;26984;59.928;30.306;2023-05-24T02:02:09;101611.59;;;15.61;100.00
41250;BME280;26984;59.928;30.306;2023-05-24T02:04:36;101617.81;;;15.68;100.00
41250;BME280;26984;59.928;30.306;2023-05-24T02:07:04;101607.06;;;15.80;100.00
41250;BME280;26984;59.928;30.306;2023-05-24T02:09:31;101613.22;;;15.87;100.00
41250;BME280;26984;59.928;30.306;2023-05-24T02:11:59;101616.47;;;15.96;100.00
41250;BME280;26984;59.928;30.306;2023-05-24T02:14:27;101625.03;;;16.11;100.00
41250;BME280;26984;59.928;30.306;2023-05-24T02:16:56;101621.56;;;16.22;100.00
41250;BME280;26984;59.928;30.306;2023-05-24T02:19:23;101617.25;;;16.33;100.00
41250;BME280;26984;59.928;30.306;2023-05-24T02:21:51;101617.28;;;16.45;100.00
41250;BME280;26984;59.928;30.306;2023-05-24T02:24:19;101623.66;;;16.50;100.00
41250;BME280;26984;59.928;30.306;2023-05-24T02:26:47;101615.41;;;16.57;100.00
41250;BME280;26984;59.928;30.306;2023-05-24T02:29:14;101609.75;;;16.59;100.00
41250;BME280;26984;59.928;30.306;2023-05-24T02:31:42;101624.28;;;16.64;100.00
41250;BME280;26984;59.928;30.306;2023-05-24T02:34:10;101612.75;;;16.69;100.00
41250;BME280;26984;59.928;30.306;2023-05-24T02:36:38;101606.56;;;16.62;100.00
41250;BME280;26984;59.928;30.306;2023-05-24T02:39:05;101630.47;;;16.71;100.00
41250;BME280;26984;59.928;30.306;2023-05-24T02:41:33;101618.31;;;16.74;100.00
41250;BME280;26984;59.928;30.306;2023-05-24T02:44:00;101620.66;;;16.70;100.00
41250;BME280;26984;59.928;30.306;2023-05-24T02:46:28;101626.28;;;16.75;100.00
41250;BME280;26984;59.928;30.306;2023-05-24T02:48:55;101627.09;;;16.76;100.00
41250;BME280;26984;59.928;30.306;2023-05-24T02:51:24;101623.78;;;16.86;100.00
41250;BME280;26984;59.928;30.306;2023-05-24T02:53:52;101623.56;;;16.87;100.00
41250;BME280;26984;59.928;30.306;2023-05-24T02:56:20;101621.22;;;16.91;100.00
41250;BME280;26984;59.928;30.306;2023-05-24T02:58:47;101620.13;;;16.92;100.00
41250;BME280;26984;59.928;30.306;2023-05-24T03:01:15;101620.50;;;16.95;100.00
41250;BME280;26984;59.928;30.306;2023-05-24T03:03:42;101619.31;;;17.03;100.00
41250;BME280;26984;59.928;30.306;2023-05-24T03:06:10;101620.38;;;17.14;100.00
41250;BME280;26984;59.928;30.306;2023-05-24T03:08:40;101623.81;;;17.21;99.88
41250;BME280;26984;59.928;30.306;2023-05-24T03:11:08;101620.78;;;17.29;99.37
41250;BME280;26984;59.928;30.306;2023-05-24T03:13:35;101617.06;;;17.35;98.97
41250;BME280;26984;59.928;30.306;2023-05-24T03:16:03;101624.41;;;17.46;98.65
41250;BME280;26984;59.928;30.306;2023-05-24T03:18:30;101623.34;;;17.59;98.13
41250;BME280;26984;59.928;30.306;2023-05-24T03:20:58;101620.59;;;17.71;97.23
41250;BME280;26984;59.928;30.306;2023-05-24T03:23:25;101620.28;;;17.79;96.34
41250;BME280;26984;59.928;30.306;2023-05-24T03:25:54;101620.22;;;17.91;95.74
41250;BME280;26984;59.928;30.306;2023-05-24T03:28:23;101627.53;;;18.02;94.75
41250;BME280;26984;59.928;30.306;2023-05-24T03:30:52;101630.47;;;18.12;94.10
41250;BME280;26984;59.928;30.306;2023-05-24T03:33:20;101627.97;;;18.23;92.89
41250;BME280;26984;59.928;30.306;2023-05-24T03:35:47;101624.59;;;18.32;91.90
41250;BME280;26984;59.928;30.306;2023-05-24T03:38:15;101638.41;;;18.42;91.28
41250;BME280;26984;59.928;30.306;2023-05-24T03:40:45;101627.13;;;18.51;90.14
41250;BME280;26984;59.928;30.306;2023-05-24T03:43:18;101625.28;;;18.56;89.62
41250;BME280;26984;59.928;30.306;2023-05-24T03:45:57;101623.50;;;18.62;88.53
41250;BME280;26984;59.928;30.306;2023-05-24T03:48:24;101620.50;;;18.63;88.38
41250;BME280;26984;59.928;30.306;2023-05-24T03:50:52;101631.75;;;18.67;87.85
41250;BME280;26984;59.928;30.306;2023-05-24T03:53:19;101633.81;;;18.72;87.58
41250;BME280;26984;59.928;30.306;2023-05-24T03:55:47;101623.56;;;18.79;87.08
41250;BME280;26984;59.928;30.306;2023-05-24T03:58:14;101623.03;;;18.82;86.85
41250;BME280;26984;59.928;30.306;2023-05-24T04:00:45;101627.78;;;18.86;86.42
41250;BME280;26984;59.928;30.306;2023-05-24T04:03:12;101629.53;;;18.93;86.25
41250;BME280;26984;59.928;30.306;2023-05-24T04:05:40;101628.84;;;19.02;85.58
41250;BME280;26984;59.928;30.306;2023-05-24T04:08:07;101624.03;;;19.09;85.03
41250;BME280;26984;59.928;30.306;2023-05-24T04:10:37;101626.13;;;19.19;84.34
41250;BME280;26984;59.928;30.306;2023-05-24T04:13:04;101633.31;;;19.25;83.89
41250;BME280;26984;59.928;30.306;2023-05-24T04:15:35;101639.16;;;19.34;83.21
41250;BME280;26984;59.928;30.306;2023-05-24T04:18:05;101641.78;;;19.46;82.75
41250;BME280;26984;59.928;30.306;2023-05-24T04:20:34;101633.50;;;19.57;81.65
41250;BME280;26984;59.928;30.306;2023-05-24T04:23:01;101634.41;;;19.63;81.31
41250;BME280;26984;59.928;30.306;2023-05-24T04:25:30;101635.06;;;19.70;80.99
41250;BME280;26984;59.928;30.306;2023-05-24T04:27:58;101639.03;;;19.79;80.58
41250;BME280;26984;59.928;30.306;2023-05-24T04:30:27;101642.41;;;19.87;79.92
41250;BME280;26984;59.928;30.306;2023-05-24T04:32:56;101636.97;;;19.92;79.96
41250;BME280;26984;59.928;30.306;2023-05-24T04:35:26;101635.19;;;20.02;79.43
41250;BME280;26984;59.928;30.306;2023-05-24T04:37:53;101636.91;;;20.08;79.18
41250;BME280;26984;59.928;30.306;2023-05-24T04:40:22;101638.97;;;20.18;78.38
41250;BME280;26984;59.928;30.306;2023-05-24T04:42:50;101642.06;;;20.27;77.95
41250;BME280;26984;59.928;30.306;2023-05-24T04:45:18;101633.97;;;20.37;76.87
41250;BME280;26984;59.928;30.306;2023-05-24T04:47:46;101634.84;;;20.43;76.48
41250;BME280;26984;59.928;30.306;2023-05-24T04:50:13;101636.31;;;20.50;76.28
41250;BME280;26984;59.928;30.306;2023-05-24T04:52:42;101636.66;;;20.59;75.99
41250;BME280;26984;59.928;30.306;2023-05-24T04:55:09;101635.94;;;20.69;74.99
41250;BME280;26984;59.928;30.306;2023-05-24T04:57:37;101634.09;;;20.74;75.04
41250;BME280;26984;59.928;30.306;2023-05-24T05:00:05;101636.34;;;20.83;74.17
41250;BME280;26984;59.928;30.306;2023-05-24T05:02:33;101635.53;;;20.82;74.21
41250;BME280;26984;59.928;30.306;2023-05-24T05:05:00;101631.72;;;20.88;74.10
41250;BME280;26984;59.928;30.306;2023-05-24T05:07:28;101643.34;;;21.00;73.22
41250;BME280;26984;59.928;30.306;2023-05-24T05:09:57;101635.22;;;21.11;72.71
41250;BME280;26984;59.928;30.306;2023-05-24T05:12:25;101636.06;;;21.16;72.18
41250;BME280;26984;59.928;30.306;2023-05-24T05:14:52;101637.81;;;21.27;70.64
41250;BME280;26984;59.928;30.306;2023-05-24T05:17:20;101643.84;;;21.29;69.74
41250;BME280;26984;59.928;30.306;2023-05-24T05:19:47;101645.81;;;21.34;69.27
41250;BME280;26984;59.928;30.306;2023-05-24T05:22:15;101643.94;;;21.40;68.47
41250;BME280;26984;59.928;30.306;2023-05-24T05:24:42;101648.38;;;21.46;68.49
41250;BME280;26984;59.928;30.306;2023-05-24T05:27:11;101645.41;;;21.52;68.50
41250;BME280;26984;59.928;30.306;2023-05-24T05:29:39;101645.72;;;21.66;67.59
41250;BME280;26984;59.928;30.306;2023-05-24T05:32:06;101648.75;;;21.70;67.10
41250;BME280;26984;59.928;30.306;2023-05-24T05:34:34;101648.22;;;21.73;65.70
41250;BME280;26984;59.928;30.306;2023-05-24T05:37:02;101646.59;;;21.77;65.04
41250;BME280;26984;59.928;30.306;2023-05-24T05:39:29;101650.50;;;21.81;64.07
41250;BME280;26984;59.928;30.306;2023-05-24T05:41:57;101654.31;;;21.80;63.44
41250;BME280;26984;59.928;30.306;2023-05-24T05:44:28;101648.88;;;21.85;63.95
41250;BME280;26984;59.928;30.306;2023-05-24T05:46:56;101647.25;;;21.94;64.49
41250;BME280;26984;59.928;30.306;2023-05-24T05:49:23;101655.81;;;22.08;63.72
41250;BME280;26984;59.928;30.306;2023-05-24T05:51:51;101657.22;;;22.16;63.42
41250;BME280;26984;59.928;30.306;2023-05-24T05:54:19;101653.13;;;22.18;63.34
41250;BME280;26984;59.928;30.306;2023-05-24T05:56:47;101656.97;;;22.22;62.65
41250;BME280;26984;59.928;30.306;2023-05-24T05:59:14;101645.19;;;22.22;62.51
41250;BME280;26984;59.928;30.306;2023-05-24T06:01:43;101654.28;;;22.28;62.61
41250;BME280;26984;59.928;30.306;2023-05-24T06:04:13;101650.72;;;22.42;62.00
41250;BME280;26984;59.928;30.306;2023-05-24T06:06:41;101651.84;;;22.46;61.22
41250;BME280;26984;59.928;30.306;2023-05-24T06:09:10;101651.56;;;22.53;60.37
41250;BME280;26984;59.928;30.306;2023-05-24T06:11:37;101649.38;;;22.65;60.10
41250;BME280;26984;59.928;30.306;2023-05-24T06:14:09;101651.59;;;22.68;58.52
41250;BME280;26984;59.928;30.306;2023-05-24T06:16:38;101654.63;;;22.72;57.76
41250;BME280;26984;59.928;30.306;2023-05-24T06:19:09;101654.06;;;22.60;57.64
41250;BME280;26984;59.928;30.306;2023-05-24T06:21:37;101654.34;;;22.63;57.96
41250;BME280;26984;59.928;30.306;2023-05-24T06:24:06;101654.34;;;22.68;58.26
41250;BME280;26984;59.928;30.306;2023-05-24T06:26:34;101647.75;;;22.80;57.09
41250;BME280;26984;59.928;30.306;2023-05-24T06:29:02;101649.69;;;22.79;57.39
41250;BME280;26984;59.928;30.306;2023-05-24T06:31:30;101651.59;;;22.84;58.01
41250;BME280;26984;59.928;30.306;2023-05-24T06:33:58;101654.91;;;22.91;57.99
41250;BME280;26984;59.928;30.306;2023-05-24T06:36:27;101659.59;;;23.01;57.79
41250;BME280;26984;59.928;30.306;2023-05-24T06:38:54;101652.75;;;23.03;57.86
41250;BME280;26984;59.928;30.306;2023-05-24T06:41:22;101651.94;;;23.03;56.40
41250;BME280;26984;59.928;30.306;2023-05-24T06:43:54;101655.50;;;23.03;56.16
41250;BME280;26984;59.928;30.306;2023-05-24T06:46:22;101663.19;;;23.06;57.15
41250;BME280;26984;59.928;30.306;2023-05-24T06:48:49;101657.41;;;23.08;56.73
41250;BME280;26984;59.928;30.306;2023-05-24T06:51:17;101654.69;;;23.03;57.53
41250;BME280;26984;59.928;30.306;2023-05-24T06:53:46;101657.94;;;22.94;58.24
41250;BME280;26984;59.928;30.306;2023-05-24T06:56:13;101661.56;;;23.05;57.16
41250;BME280;26984;59.928;30.306;2023-05-24T06:58:41;101668.41;;;23.23;56.35
41250;BME280;26984;59.928;30.306;2023-05-24T07:01:08;101660.66;;;23.40;56.62
41250;BME280;26984;59.928;30.306;2023-05-24T07:03:36;101664.75;;;23.58;55.40
41250;BME280;26984;59.928;30.306;2023-05-24T07:06:04;101659.56;;;23.52;54.72
41250;BME280;26984;59.928;30.306;2023-05-24T07:08:34;101657.63;;;23.57;54.50
41250;BME280;26984;59.928;30.306;2023-05-24T07:11:04;101664.75;;;23.63;53.86
41250;BME280;26984;59.928;30.306;2023-05-24T07:13:32;101666.97;;;23.56;53.24
41250;BME280;26984;59.928;30.306;2023-05-24T07:16:00;101662.00;;;23.58;53.83
41250;BME280;26984;59.928;30.306;2023-05-24T07:18:27;101653.19;;;23.66;53.62
41250;BME280;26984;59.928;30.306;2023-05-24T07:20:55;101661.72;;;23.80;53.37
41250;BME280;26984;59.928;30.306;2023-05-24T07:23:22;101656.13;;;24.01;52.71
41250;BME280;26984;59.928;30.306;2023-05-24T07:25:50;101659.91;;;24.20;49.67
41250;BME280;26984;59.928;30.306;2023-05-24T07:28:19;101659.25;;;24.38;46.71
41250;BME280;26984;59.928;30.306;2023-05-24T07:30:46;101660.28;;;24.53;46.03
41250;BME280;26984;59.928;30.306;2023-05-24T07:33:14;101658.25;;;24.69;46.01
41250;BME280;26984;59.928;30.306;2023-05-24T07:35:43;101661.22;;;24.77;46.22
41250;BME280;26984;59.928;30.306;2023-05-24T07:38:16;101657.84;;;24.85;45.89
41250;BME280;26984;59.928;30.306;2023-05-24T07:40:43;101651.94;;;24.97;45.72
41250;BME280;26984;59.928;30.306;2023-05-24T07:43:11;101660.38;;;25.16;45.66
41250;BME280;26984;59.928;30.306;2023-05-24T07:45:40;101662.19;;;25.31;44.22
41250;BME280;26984;59.928;30.306;2023-05-24T07:48:07;101660.06;;;25.47;44.39
41250;BME280;26984;59.928;30.306;2023-05-24T07:50:35;101658.88;;;25.58;43.50
41250;BME280;26984;59.928;30.306;2023-05-24T07:53:03;101659.28;;;25.70;44.49
41250;BME280;26984;59.928;30.306;2023-05-24T07:55:32;101666.09;;;25.78;42.79
41250;BME280;26984;59.928;30.306;2023-05-24T07:57:59;101656.66;;;25.84;43.15
41250;BME280;26984;59.928;30.306;2023-05-24T08:00:27;101651.38;;;25.88;43.00
41250;BME280;26984;59.928;30.306;2023-05-24T08:02:56;101650.56;;;25.87;41.57
41250;BME280;26984;59.928;30.306;2023-05-24T08:05:23;101648.25;;;25.70;41.56
41250;BME280;26984;59.928;30.306;2023-05-24T08:07:51;101649.13;;;25.66;41.73
41250;BME280;26984;59.928;30.306;2023-05-24T08:10:19;101649.00;;;25.76;41.21
41250;BME280;26984;59.928;30.306;2023-05-24T08:12:46;101652.13;;;25.93;41.61
41250;BME280;26984;59.928;30.306;2023-05-24T08:15:16;101646.66;;;26.12;41.83
41250;BME280;26984;59.928;30.306;2023-05-24T08:17:43;101645.47;;;26.18;40.17
41250;BME280;26984;59.928;30.306;2023-05-24T08:20:12;101652.22;;;26.07;39.87
41250;BME280;26984;59.928;30.306;2023-05-24T08:22:42;101645.56;;;25.89;39.82
41250;BME280;26984;59.928;30.306;2023-05-24T08:25:09;101645.41;;;25.75;40.34
41250;BME280;26984;59.928;30.306;2023-05-24T08:27:37;101642.06;;;25.78;40.41
41250;BME280;26984;59.928;30.306;2023-05-24T08:30:05;101649.88;;;25.71;40.59
41250;BME280;26984;59.928;30.306;2023-05-24T08:32:35;101644.38;;;25.47;38.77
41250;BME280;26984;59.928;30.306;2023-05-24T08:35:08;101645.81;;;25.11;39.31
41250;BME280;26984;59.928;30.306;2023-05-24T08:37:40;101641.94;;;24.77;39.09
41250;BME280;26984;59.928;30.306;2023-05-24T08:40:09;101631.38;;;24.50;38.67
41250;BME280;26984;59.928;30.306;2023-05-24T08:42:37;101630.63;;;24.34;39.40
41250;BME280;26984;59.928;30.306;2023-05-24T08:45:07;101631.25;;;24.26;39.19
41250;BME280;26984;59.928;30.306;2023-05-24T08:47:35;101639.50;;;24.21;39.99
41250;BME280;26984;59.928;30.306;2023-05-24T08:50:05;101630.56;;;23.90;40.01
41250;BME280;26984;59.928;30.306;2023-05-24T08:52:33;101633.34;;;23.85;40.10
41250;BME280;26984;59.928;30.306;2023-05-24T08:55:06;101630.88;;;23.88;41.09
41250;BME280;26984;59.928;30.306;2023-05-24T08:57:40;101627.56;;;23.86;41.22
41250;BME280;26984;59.928;30.306;2023-05-24T09:00:09;101630.59;;;23.80;41.22
41250;BME280;26984;59.928;30.306;2023-05-24T09:02:39;101627.59;;;23.76;40.94
41250;BME280;26984;59.928;30.306;2023-05-24T09:05:08;101630.91;;;23.78;41.08
41250;BME280;26984;59.928;30.306;2023-05-24T09:07:37;101627.63;;;23.71;41.12
41250;BME280;26984;59.928;30.306;2023-05-24T09:10:07;101625.13;;;23.75;41.01
41250;BME280;26984;59.928;30.306;2023-05-24T09:12:36;101622.06;;;23.86;41.37
41250;BME280;26984;59.928;30.306;2023-05-24T09:15:04;101616.66;;;24.21;40.61
41250;BME280;26984;59.928;30.306;2023-05-24T09:17:33;101613.78;;;24.46;40.09
41250;BME280;26984;59.928;30.306;2023-05-24T09:20:01;101608.00;;;24.82;40.01
41250;BME280;26984;59.928;30.306;2023-05-24T09:22:31;101616.78;;;25.18;39.41
41250;BME280;26984;59.928;30.306;2023-05-24T09:25:00;101620.41;;;25.43;38.32
41250;BME280;26984;59.928;30.306;2023-05-24T09:27:30;101615.72;;;25.67;37.49
41250;BME280;26984;59.928;30.306;2023-05-24T09:29:59;101610.88;;;25.78;37.07
41250;BME280;26984;59.928;30.306;2023-05-24T09:32:28;101608.03;;;25.88;37.09
41250;BME280;26984;59.928;30.306;2023-05-24T09:34:57;101613.78;;;26.11;35.78
41250;BME280;26984;59.928;30.306;2023-05-24T09:37:27;101615.16;;;26.13;35.33
41250;BME280;26984;59.928;30.306;2023-05-24T09:39:57;101610.38;;;26.19;35.14
41250;BME280;26984;59.928;30.306;2023-05-24T09:42:30;101610.06;;;26.39;35.40
41250;BME280;26984;59.928;30.306;2023-05-24T09:45:01;101608.22;;;26.54;33.80
41250;BME280;26984;59.928;30.306;2023-05-24T09:47:30;101607.13;;;26.55;33.66
41250;BME280;26984;59.928;30.306;2023-05-24T09:49:58;101607.53;;;26.24;33.89
41250;BME280;26984;59.928;30.306;2023-05-24T09:52:27;101606.91;;;25.89;35.43
41250;BME280;26984;59.928;30.306;2023-05-24T09:54:54;101607.03;;;25.79;36.43
41250;BME280;26984;59.928;30.306;2023-05-24T09:57:22;101605.94;;;25.75;37.02
41250;BME280;26984;59.928;30.306;2023-05-24T09:59:54;101600.28;;;25.66;38.04
41250;BME280;26984;59.928;30.306;2023-05-24T10:02:24;101606.22;;;25.54;37.91
41250;BME280;26984;59.928;30.306;2023-05-24T10:04:56;101605.50;;;25.44;37.02
41250;BME280;26984;59.928;30.306;2023-05-24T10:07:24;101597.97;;;25.25;38.06
41250;BME280;26984;59.928;30.306;2023-05-24T10:09:51;101612.63;;;25.21;39.51
41250;BME280;26984;59.928;30.306;2023-05-24T10:12:20;101608.59;;;24.40;42.33
41250;BME280;26984;59.928;30.306;2023-05-24T10:14:49;101604.50;;;23.77;43.31
41250;BME280;26984;59.928;30.306;2023-05-24T10:17:19;101606.53;;;23.36;44.43
41250;BME280;26984;59.928;30.306;2023-05-24T10:19:47;101599.72;;;23.13;44.84
41250;BME280;26984;59.928;30.306;2023-05-24T10:22:16;101607.13;;;23.07;45.18
41250;BME280;26984;59.928;30.306;2023-05-24T10:24:45;101606.03;;;22.88;45.80
41250;BME280;26984;59.928;30.306;2023-05-24T10:27:14;101599.69;;;22.82;46.27
41250;BME280;26984;59.928;30.306;2023-05-24T10:29:44;101599.41;;;22.84;46.38
41250;BME280;26984;59.928;30.306;2023-05-24T10:32:15;101604.06;;;22.73;46.16
41250;BME280;26984;59.928;30.306;2023-05-24T10:34:45;101597.78;;;22.67;46.16
41250;BME280;26984;59.928;30.306;2023-05-24T10:37:15;101593.63;;;22.65;46.05
41250;BME280;26984;59.928;30.306;2023-05-24T10:39:43;101596.97;;;22.77;46.33
41250;BME280;26984;59.928;30.306;2023-05-24T10:42:11;101590.88;;;22.90;45.71
41250;BME280;26984;59.928;30.306;2023-05-24T10:44:38;101600.22;;;23.15;45.27
41250;BME280;26984;59.928;30.306;2023-05-24T10:47:07;101592.78;;;23.36;44.55
41250;BME280;26984;59.928;30.306;2023-05-24T10:49:35;101594.63;;;23.66;44.09
41250;BME280;26984;59.928;30.306;2023-05-24T10:52:07;101591.53;;;23.88;43.86
41250;BME280;26984;59.928;30.306;2023-05-24T10:54:35;101583.50;;;23.97;44.10
41250;BME280;26984;59.928;30.306;2023-05-24T10:57:03;101582.00;;;24.14;42.75
41250;BME280;26984;59.928;30.306;2023-05-24T10:59:32;101572.91;;;24.19;42.58
41250;BME280;26984;59.928;30.306;2023-05-24T11:02:05;101583.53;;;24.41;42.32
41250;BME280;26984;59.928;30.306;2023-05-24T11:04:37;101582.63;;;24.51;41.93
41250;BME280;26984;59.928;30.306;2023-05-24T11:07:10;101579.81;;;24.90;41.33
41250;BME280;26984;59.928;30.306;2023-05-24T11:09:39;101577.47;;;25.37;41.07
41250;BME280;26984;59.928;30.306;2023-05-24T11:12:13;101568.75;;;25.72;40.28
41250;BME280;26984;59.928;30.306;2023-05-24T11:14:41;101560.66;;;26.00;39.14
41250;BME280;26984;59.928;30.306;2023-05-24T11:17:13;101566.94;;;26.06;38.66
41250;BME280;26984;59.928;30.306;2023-05-24T11:19:45;101569.94;;;26.09;39.02
41250;BME280;26984;59.928;30.306;2023-05-24T11:22:14;101572.53;;;26.38;38.42
41250;BME280;26984;59.928;30.306;2023-05-24T11:24:44;101561.59;;;26.66;38.44
41250;BME280;26984;59.928;30.306;2023-05-24T11:27:13;101567.31;;;27.02;37.46
41250;BME280;26984;59.928;30.306;2023-05-24T11:29:42;101557.88;;;27.36;36.58
41250;BME280;26984;59.928;30.306;2023-05-24T11:32:13;101553.44;;;27.49;36.31
41250;BME280;26984;59.928;30.306;2023-05-24T11:34:41;101552.41;;;27.58;36.50
41250;BME280;26984;59.928;30.306;2023-05-24T11:37:10;101549.44;;;27.55;36.27
41250;BME280;26984;59.928;30.306;2023-05-24T11:39:39;101554.91;;;27.32;37.06
41250;BME280;26984;59.928;30.306;2023-05-24T11:42:08;101547.19;;;27.15;36.51
41250;BME280;26984;59.928;30.306;2023-05-24T11:44:35;101546.59;;;26.86;37.47
41250;BME280;26984;59.928;30.306;2023-05-24T11:47:04;101548.44;;;26.77;37.87
41250;BME280;26984;59.928;30.306;2023-05-24T11:49:32;101520.00;;;26.57;37.41
41250;BME280;26984;59.928;30.306;2023-05-24T11:52:00;101492.66;;;26.04;37.91
41250;BME280;26984;59.928;30.306;2023-05-24T11:54:27;101527.97;;;25.21;38.93
41250;BME280;26984;59.928;30.306;2023-05-24T11:56:58;101548.88;;;24.69;39.35
41250;BME280;26984;59.928;30.306;2023-05-24T11:59:25;101546.69;;;24.66;39.76
41250;BME280;26984;59.928;30.306;2023-05-24T12:01:56;101552.53;;;24.89;38.94
41250;BME280;26984;59.928;30.306;2023-05-24T12:04:28;101546.13;;;24.98;38.17
41250;BME280;26984;59.928;30.306;2023-05-24T12:06:59;101543.13;;;24.95;36.93
41250;BME280;26984;59.928;30.306;2023-05-24T12:09:27;101537.94;;;24.88;37.50
41250;BME280;26984;59.928;30.306;2023-05-24T12:11:55;101534.06;;;25.18;36.82
41250;BME280;26984;59.928;30.306;2023-05-24T12:14:26;101532.09;;;25.48;36.66
41250;BME280;26984;59.928;30.306;2023-05-24T12:16:54;101531.75;;;25.73;36.18
41250;BME280;26984;59.928;30.306;2023-05-24T12:19:22;101527.63;;;25.71;36.63
41250;BME280;26984;59.928;30.306;2023-05-24T12:21:54;101525.31;;;25.83;36.40
41250;BME280;26984;59.928;30.306;2023-05-24T12:24:22;101520.50;;;26.08;36.28
41250;BME280;26984;59.928;30.306;2023-05-24T12:26:49;101524.44;;;26.39;35.94
41250;BME280;26984;59.928;30.306;2023-05-24T12:29:18;101518.44;;;26.84;35.54
41250;BME280;26984;59.928;30.306;2023-05-24T12:31:47;101517.59;;;27.43;35.25
41250;BME280;26984;59.928;30.306;2023-05-24T12:34:17;101511.47;;;27.97;34.34
41250;BME280;26984;59.928;30.306;2023-05-24T12:36:45;101512.75;;;28.35;33.99
41250;BME280;26984;59.928;30.306;2023-05-24T12:39:16;101506.94;;;28.68;32.91
41250;BME280;26984;59.928;30.306;2023-05-24T12:41:44;101504.09;;;28.82;32.39
41250;BME280;26984;59.928;30.306;2023-05-24T12:44:16;101507.53;;;28.87;31.87
41250;BME280;26984;59.928;30.306;2023-05-24T12:46:44;101501.97;;;28.87;32.46
41250;BME280;26984;59.928;30.306;2023-05-24T12:49:13;101499.06;;;28.93;32.40